sensor_id;sensor_type;location;lat;lon;timestamp;P1;durP1;ratioP1;P2;durP2;ratioP2
38683;SDS011;24910;53.248;-6.134;2023-03-21T00:02:13;1.40;;;0.63;;
38683;SDS011;24910;53.248;-6.134;2023-03-21T00:04:43;1.27;;;0.55;;
38683;SDS011;24910;53.248;-6.134;2023-03-21T00:07:19;1.92;;;0.60;;
38683;SDS011;24910;53.248;-6.134;2023-03-21T00:09:50;2.22;;;0.80;;
38683;SDS011;24910;53.248;-6.134;2023-03-21T00:12:31;2.90;;;0.82;;
38683;SDS011;24910;53.248;-6.134;2023-03-21T00:15:04;2.28;;;0.90;;
38683;SDS011;24910;53.248;-6.134;2023-03-21T00:17:34;4.50;;;1.33;;
38683;SDS011;24910;53.248;-6.134;2023-03-21T00:20:06;1.67;;;0.63;;
38683;SDS011;24910;53.248;-6.134;2023-03-21T00:22:41;3.92;;;0.95;;
38683;SDS011;24910;53.248;-6.134;2023-03-21T00:25:12;6.13;;;1.00;;
38683;SDS011;24910;53.248;-6.134;2023-03-21T00:27:41;5.37;;;1.00;;
38683;SDS011;24910;53.248;-6.134;2023-03-21T00:30:30;1.95;;;0.90;;
38683;SDS011;24910;53.248;-6.134;2023-03-21T00:32:59;1.90;;;0.85;;
38683;SDS011;24910;53.248;-6.134;2023-03-21T00:35:41;2.65;;;0.93;;
38683;SDS011;24910;53.248;-6.134;2023-03-21T00:38:28;2.58;;;0.90;;
38683;SDS011;24910;53.248;-6.134;2023-03-21T00:40:58;5.68;;;1.02;;
38683;SDS011;24910;53.248;-6.134;2023-03-21T00:43:43;4.60;;;1.33;;
38683;SDS011;24910;53.248;-6.134;2023-03-21T00:46:12;6.65;;;1.85;;
38683;SDS011;24910;53.248;-6.134;2023-03-21T00:48:42;5.00;;;1.00;;
38683;SDS011;24910;53.248;-6.134;2023-03-21T00:51:11;3.92;;;1.00;;
38683;SDS011;24910;53.248;-6.134;2023-03-21T00:53:47;5.72;;;1.30;;
38683;SDS011;24910;53.248;-6.134;2023-03-21T00:56:18;4.70;;;1.58;;
38683;SDS011;24910;53.248;-6.134;2023-03-21T00:58:48;7.28;;;4.50;;
38683;SDS011;24910;53.248;-6.134;2023-03-21T01:01:17;20.52;;;7.13;;
38683;SDS011;24910;53.248;-6.134;2023-03-21T01:03:47;13.52;;;4.07;;
38683;SDS011;24910;53.248;-6.134;2023-03-21T01:06:30;17.33;;;2.42;;
38683;SDS011;24910;53.248;-6.134;2023-03-21T01:09:00;10.33;;;2.47;;
38683;SDS011;24910;53.248;-6.134;2023-03-21T01:11:31;13.38;;;3.13;;
38683;SDS011;24910;53.248;-6.134;2023-03-21T01:14:00;15.38;;;5.57;;
38683;SDS011;24910;53.248;-6.134;2023-03-21T01:16:48;17.70;;;3.13;;
38683;SDS011;24910;53.248;-6.134;2023-03-21T01:19:20;11.32;;;2.55;;
38683;SDS011;24910;53.248;-6.134;2023-03-21T01:22:11;14.60;;;2.38;;
38683;SDS011;24910;53.248;-6.134;2023-03-21T01:24:40;10.43;;;3.20;;
38683;SDS011;24910;53.248;-6.134;2023-03-21T01:29:51;4.78;;;1.00;;
38683;SDS011;24910;53.248;-6.134;2023-03-21T01:32:20;8.40;;;1.40;;
38683;SDS011;24910;53.248;-6.134;2023-03-21T01:34:49;4.88;;;1.05;;
38683;SDS011;24910;53.248;-6.134;2023-03-21T01:37:21;4.82;;;1.10;;
38683;SDS011;24910;53.248;-6.134;2023-03-21T01:39:52;5.15;;;1.05;;
38683;SDS011;24910;53.248;-6.134;2023-03-21T01:42:23;6.38;;;1.23;;
38683;SDS011;24910;53.248;-6.134;2023-03-21T01:44:53;5.95;;;1.80;;
38683;SDS011;24910;53.248;-6.134;2023-03-21T01:47:28;4.28;;;1.10;;
38683;SDS011;24910;53.248;-6.134;2023-03-21T01:53:12;11.35;;;1.58;;
38683;SDS011;24910;53.248;-6.134;2023-03-21T01:55:42;10.68;;;1.30;;
38683;SDS011;24910;53.248;-6.134;2023-03-21T01:58:22;22.10;;;6.78;;
38683;SDS011;24910;53.248;-6.134;2023-03-21T02:01:01;13.70;;;2.88;;
38683;SDS011;24910;53.248;-6.134;2023-03-21T02:03:43;12.50;;;2.20;;
38683;SDS011;24910;53.248;-6.134;2023-03-21T02:06:38;12.38;;;2.92;;
38683;SDS011;24910;53.248;-6.134;2023-03-21T02:09:24;12.40;;;2.50;;
38683;SDS011;24910;53.248;-6.134;2023-03-21T02:11:56;14.73;;;2.67;;
38683;SDS011;24910;53.248;-6.134;2023-03-21T02:14:30;16.58;;;3.10;;
38683;SDS011;24910;53.248;-6.134;2023-03-21T02:17:25;16.08;;;3.03;;
38683;SDS011;24910;53.248;-6.134;2023-03-21T02:23:09;18.95;;;2.85;;
38683;SDS011;24910;53.248;-6.134;2023-03-21T02:29:40;16.88;;;3.33;;
38683;SDS011;24910;53.248;-6.134;2023-03-21T02:32:34;18.70;;;2.78;;
38683;SDS011;24910;53.248;-6.134;2023-03-21T02:38:24;15.27;;;3.75;;
38683;SDS011;24910;53.248;-6.134;2023-03-21T02:40:59;14.35;;;3.20;;
38683;SDS011;24910;53.248;-6.134;2023-03-21T02:43:45;16.45;;;3.17;;
38683;SDS011;24910;53.248;-6.134;2023-03-21T02:46:23;18.88;;;2.95;;
38683;SDS011;24910;53.248;-6.134;2023-03-21T02:49:15;24.52;;;3.70;;
38683;SDS011;24910;53.248;-6.134;2023-03-21T02:51:48;21.70;;;3.63;;
38683;SDS011;24910;53.248;-6.134;2023-03-21T02:54:24;24.23;;;3.17;;
38683;SDS011;24910;53.248;-6.134;2023-03-21T02:57:14;20.08;;;3.08;;
38683;SDS011;24910;53.248;-6.134;2023-03-21T02:59:46;18.70;;;3.50;;
38683;SDS011;24910;53.248;-6.134;2023-03-21T03:02:31;24.20;;;3.10;;
38683;SDS011;24910;53.248;-6.134;2023-03-21T03:05:00;22.55;;;3.70;;
38683;SDS011;24910;53.248;-6.134;2023-03-21T03:07:43;18.30;;;3.28;;
38683;SDS011;24910;53.248;-6.134;2023-03-21T03:10:27;27.08;;;3.92;;
38683;SDS011;24910;53.248;-6.134;2023-03-21T03:13:08;24.27;;;4.10;;
38683;SDS011;24910;53.248;-6.134;2023-03-21T03:15:49;24.85;;;3.97;;
38683;SDS011;24910;53.248;-6.134;2023-03-21T03:18:28;20.38;;;3.55;;
38683;SDS011;24910;53.248;-6.134;2023-03-21T03:21:02;21.10;;;3.70;;
38683;SDS011;24910;53.248;-6.134;2023-03-21T03:23:40;32.45;;;4.57;;
38683;SDS011;24910;53.248;-6.134;2023-03-21T03:26:15;23.83;;;4.38;;
38683;SDS011;24910;53.248;-6.134;2023-03-21T03:28:47;24.35;;;3.88;;
38683;SDS011;24910;53.248;-6.134;2023-03-21T03:31:20;29.27;;;4.35;;
38683;SDS011;24910;53.248;-6.134;2023-03-21T03:34:03;28.95;;;4.05;;
38683;SDS011;24910;53.248;-6.134;2023-03-21T03:36:39;33.17;;;4.80;;
38683;SDS011;24910;53.248;-6.134;2023-03-21T03:39:15;29.10;;;4.05;;
38683;SDS011;24910;53.248;-6.134;2023-03-21T03:41:58;28.13;;;4.30;;
38683;SDS011;24910;53.248;-6.134;2023-03-21T03:44:56;30.60;;;4.63;;
38683;SDS011;24910;53.248;-6.134;2023-03-21T03:47:26;32.28;;;5.32;;
38683;SDS011;24910;53.248;-6.134;2023-03-21T03:50:09;29.38;;;4.38;;
38683;SDS011;24910;53.248;-6.134;2023-03-21T03:52:43;35.03;;;5.03;;
38683;SDS011;24910;53.248;-6.134;2023-03-21T03:55:26;29.73;;;4.22;;
38683;SDS011;24910;53.248;-6.134;2023-03-21T03:58:10;31.63;;;4.72;;
38683;SDS011;24910;53.248;-6.134;2023-03-21T04:00:50;32.42;;;4.10;;
38683;SDS011;24910;53.248;-6.134;2023-03-21T04:03:20;34.67;;;4.60;;
38683;SDS011;24910;53.248;-6.134;2023-03-21T04:05:51;40.90;;;5.03;;
38683;SDS011;24910;53.248;-6.134;2023-03-21T04:08:20;35.42;;;4.97;;
38683;SDS011;24910;53.248;-6.134;2023-03-21T04:10:52;43.83;;;5.07;;
38683;SDS011;24910;53.248;-6.134;2023-03-21T04:13:24;33.08;;;4.20;;
38683;SDS011;24910;53.248;-6.134;2023-03-21T04:16:13;24.17;;;3.78;;
38683;SDS011;24910;53.248;-6.134;2023-03-21T04:18:43;28.23;;;3.70;;
38683;SDS011;24910;53.248;-6.134;2023-03-21T04:21:17;28.77;;;3.90;;
38683;SDS011;24910;53.248;-6.134;2023-03-21T04:23:47;31.33;;;3.93;;
38683;SDS011;24910;53.248;-6.134;2023-03-21T04:26:21;32.35;;;4.68;;
38683;SDS011;24910;53.248;-6.134;2023-03-21T04:29:14;30.58;;;4.25;;
38683;SDS011;24910;53.248;-6.134;2023-03-21T04:31:58;26.70;;;3.60;;
38683;SDS011;24910;53.248;-6.134;2023-03-21T04:34:28;22.75;;;3.53;;
38683;SDS011;24910;53.248;-6.134;2023-03-21T04:37:00;24.23;;;3.42;;
38683;SDS011;24910;53.248;-6.134;2023-03-21T04:39:30;20.73;;;3.22;;
38683;SDS011;24910;53.248;-6.134;2023-03-21T04:41:59;18.13;;;2.65;;
38683;SDS011;24910;53.248;-6.134;2023-03-21T04:44:29;28.50;;;3.85;;
38683;SDS011;24910;53.248;-6.134;2023-03-21T04:46:58;25.10;;;3.70;;
38683;SDS011;24910;53.248;-6.134;2023-03-21T04:49:28;36.00;;;4.07;;
38683;SDS011;24910;53.248;-6.134;2023-03-21T04:51:57;29.52;;;4.07;;
38683;SDS011;24910;53.248;-6.134;2023-03-21T04:54:26;40.35;;;4.60;;
38683;SDS011;24910;53.248;-6.134;2023-03-21T04:56:56;34.53;;;4.43;;
38683;SDS011;24910;53.248;-6.134;2023-03-21T04:59:27;36.90;;;4.35;;
38683;SDS011;24910;53.248;-6.134;2023-03-21T05:01:57;36.72;;;4.80;;
38683;SDS011;24910;53.248;-6.134;2023-03-21T05:04:26;35.00;;;4.03;;
38683;SDS011;24910;53.248;-6.134;2023-03-21T05:06:55;39.97;;;5.22;;
38683;SDS011;24910;53.248;-6.134;2023-03-21T05:09:25;31.92;;;4.50;;
38683;SDS011;24910;53.248;-6.134;2023-03-21T05:11:54;38.28;;;4.65;;
38683;SDS011;24910;53.248;-6.134;2023-03-21T05:14:24;30.75;;;4.70;;
38683;SDS011;24910;53.248;-6.134;2023-03-21T05:16:59;33.00;;;4.72;;
38683;SDS011;24910;53.248;-6.134;2023-03-21T05:19:32;30.83;;;3.50;;
38683;SDS011;24910;53.248;-6.134;2023-03-21T05:22:08;38.75;;;4.28;;
38683;SDS011;24910;53.248;-6.134;2023-03-21T05:24:40;31.80;;;3.47;;
38683;SDS011;24910;53.248;-6.134;2023-03-21T05:27:17;20.20;;;3.63;;
38683;SDS011;24910;53.248;-6.134;2023-03-21T05:30:02;23.73;;;3.45;;
38683;SDS011;24910;53.248;-6.134;2023-03-21T05:32:34;20.15;;;3.05;;
38683;SDS011;24910;53.248;-6.134;2023-03-21T05:35:04;22.85;;;3.72;;
38683;SDS011;24910;53.248;-6.134;2023-03-21T05:37:34;31.67;;;3.83;;
38683;SDS011;24910;53.248;-6.134;2023-03-21T05:42:38;31.55;;;4.07;;
38683;SDS011;24910;53.248;-6.134;2023-03-21T05:45:20;19.92;;;3.17;;
38683;SDS011;24910;53.248;-6.134;2023-03-21T05:47:52;19.75;;;3.10;;
38683;SDS011;24910;53.248;-6.134;2023-03-21T05:50:25;17.45;;;2.50;;
38683;SDS011;24910;53.248;-6.134;2023-03-21T05:53:07;19.38;;;2.83;;
38683;SDS011;24910;53.248;-6.134;2023-03-21T05:55:36;14.70;;;1.90;;
38683;SDS011;24910;53.248;-6.134;2023-03-21T05:58:10;12.20;;;2.15;;
38683;SDS011;24910;53.248;-6.134;2023-03-21T06:00:44;10.98;;;2.15;;
38683;SDS011;24910;53.248;-6.134;2023-03-21T06:03:26;12.85;;;2.00;;
38683;SDS011;24910;53.248;-6.134;2023-03-21T06:06:06;7.35;;;1.48;;
38683;SDS011;24910;53.248;-6.134;2023-03-21T06:08:41;11.02;;;2.03;;
38683;SDS011;24910;53.248;-6.134;2023-03-21T06:11:11;12.98;;;1.55;;
38683;SDS011;24910;53.248;-6.134;2023-03-21T06:13:54;4.93;;;0.93;;
38683;SDS011;24910;53.248;-6.134;2023-03-21T06:16:23;8.88;;;1.15;;
38683;SDS011;24910;53.248;-6.134;2023-03-21T06:18:54;4.85;;;0.90;;
38683;SDS011;24910;53.248;-6.134;2023-03-21T06:21:44;3.75;;;0.60;;
38683;SDS011;24910;53.248;-6.134;2023-03-21T06:24:13;1.85;;;0.40;;
38683;SDS011;24910;53.248;-6.134;2023-03-21T06:26:44;1.27;;;0.40;;
38683;SDS011;24910;53.248;-6.134;2023-03-21T06:29:14;0.87;;;0.57;;
38683;SDS011;24910;53.248;-6.134;2023-03-21T06:31:47;2.42;;;0.50;;
38683;SDS011;24910;53.248;-6.134;2023-03-21T06:34:18;1.65;;;0.38;;
38683;SDS011;24910;53.248;-6.134;2023-03-21T06:36:48;1.75;;;0.55;;
38683;SDS011;24910;53.248;-6.134;2023-03-21T06:39:20;2.17;;;0.40;;
38683;SDS011;24910;53.248;-6.134;2023-03-21T06:41:49;1.67;;;0.70;;
38683;SDS011;24910;53.248;-6.134;2023-03-21T06:44:18;1.60;;;0.50;;
38683;SDS011;24910;53.248;-6.134;2023-03-21T06:46:56;1.65;;;0.55;;
38683;SDS011;24910;53.248;-6.134;2023-03-21T06:49:26;0.90;;;0.30;;
38683;SDS011;24910;53.248;-6.134;2023-03-21T06:51:59;3.10;;;0.30;;
38683;SDS011;24910;53.248;-6.134;2023-03-21T06:54:28;0.30;;;0.30;;
38683;SDS011;24910;53.248;-6.134;2023-03-21T06:57:07;2.20;;;0.30;;
38683;SDS011;24910;53.248;-6.134;2023-03-21T06:59:38;2.03;;;0.40;;
38683;SDS011;24910;53.248;-6.134;2023-03-21T07:02:13;0.60;;;0.40;;
38683;SDS011;24910;53.248;-6.134;2023-03-21T07:05:02;0.50;;;0.50;;
38683;SDS011;24910;53.248;-6.134;2023-03-21T07:07:32;2.53;;;0.60;;
38683;SDS011;24910;53.248;-6.134;2023-03-21T07:10:01;2.80;;;0.70;;
38683;SDS011;24910;53.248;-6.134;2023-03-21T07:12:40;2.05;;;0.57;;
38683;SDS011;24910;53.248;-6.134;2023-03-21T07:15:19;4.18;;;0.90;;
38683;SDS011;24910;53.248;-6.134;2023-03-21T07:17:50;1.13;;;0.60;;
38683;SDS011;24910;53.248;-6.134;2023-03-21T07:20:21;3.50;;;0.90;;
38683;SDS011;24910;53.248;-6.134;2023-03-21T07:22:50;3.43;;;0.57;;
38683;SDS011;24910;53.248;-6.134;2023-03-21T07:25:19;3.58;;;0.73;;
38683;SDS011;24910;53.248;-6.134;2023-03-21T07:27:49;3.15;;;0.80;;
38683;SDS011;24910;53.248;-6.134;2023-03-21T07:30:18;6.03;;;1.05;;
38683;SDS011;24910;53.248;-6.134;2023-03-21T07:32:47;1.33;;;0.73;;
38683;SDS011;24910;53.248;-6.134;2023-03-21T07:35:16;1.77;;;0.40;;
38683;SDS011;24910;53.248;-6.134;2023-03-21T07:37:48;3.92;;;0.70;;
38683;SDS011;24910;53.248;-6.134;2023-03-21T07:40:17;1.45;;;0.65;;
38683;SDS011;24910;53.248;-6.134;2023-03-21T07:42:48;1.90;;;0.70;;
38683;SDS011;24910;53.248;-6.134;2023-03-21T07:45:28;2.85;;;0.60;;
38683;SDS011;24910;53.248;-6.134;2023-03-21T07:47:57;1.52;;;0.70;;
38683;SDS011;24910;53.248;-6.134;2023-03-21T07:50:26;1.90;;;0.50;;
38683;SDS011;24910;53.248;-6.134;2023-03-21T07:52:57;1.23;;;0.57;;
38683;SDS011;24910;53.248;-6.134;2023-03-21T07:55:26;1.07;;;0.53;;
38683;SDS011;24910;53.248;-6.134;2023-03-21T07:57:55;0.95;;;0.40;;
38683;SDS011;24910;53.248;-6.134;2023-03-21T08:00:24;1.63;;;0.50;;
38683;SDS011;24910;53.248;-6.134;2023-03-21T08:02:54;2.08;;;0.75;;
38683;SDS011;24910;53.248;-6.134;2023-03-21T08:05:26;2.17;;;0.50;;
38683;SDS011;24910;53.248;-6.134;2023-03-21T08:07:59;1.90;;;0.47;;
38683;SDS011;24910;53.248;-6.134;2023-03-21T08:10:28;3.33;;;0.47;;
38683;SDS011;24910;53.248;-6.134;2023-03-21T08:12:57;2.58;;;0.40;;
38683;SDS011;24910;53.248;-6.134;2023-03-21T08:15:27;2.35;;;0.55;;
38683;SDS011;24910;53.248;-6.134;2023-03-21T08:17:57;3.15;;;0.70;;
38683;SDS011;24910;53.248;-6.134;2023-03-21T08:20:27;3.08;;;0.57;;
38683;SDS011;24910;53.248;-6.134;2023-03-21T08:22:56;2.05;;;0.65;;
38683;SDS011;24910;53.248;-6.134;2023-03-21T08:25:26;3.28;;;0.70;;
38683;SDS011;24910;53.248;-6.134;2023-03-21T08:27:56;3.83;;;0.70;;
38683;SDS011;24910;53.248;-6.134;2023-03-21T08:30:26;4.43;;;0.82;;
38683;SDS011;24910;53.248;-6.134;2023-03-21T08:32:56;1.58;;;0.55;;
38683;SDS011;24910;53.248;-6.134;2023-03-21T08:37:57;4.25;;;0.90;;
38683;SDS011;24910;53.248;-6.134;2023-03-21T08:40:28;6.15;;;0.80;;
38683;SDS011;24910;53.248;-6.134;2023-03-21T08:42:57;3.50;;;0.60;;
38683;SDS011;24910;53.248;-6.134;2023-03-21T08:45:27;4.60;;;0.80;;
38683;SDS011;24910;53.248;-6.134;2023-03-21T08:47:57;4.00;;;0.80;;
38683;SDS011;24910;53.248;-6.134;2023-03-21T08:50:26;3.17;;;0.88;;
38683;SDS011;24910;53.248;-6.134;2023-03-21T08:52:57;6.45;;;1.27;;
38683;SDS011;24910;53.248;-6.134;2023-03-21T08:55:26;6.25;;;1.60;;
38683;SDS011;24910;53.248;-6.134;2023-03-21T08:57:59;8.02;;;1.40;;
38683;SDS011;24910;53.248;-6.134;2023-03-21T09:00:29;2.47;;;0.70;;
38683;SDS011;24910;53.248;-6.134;2023-03-21T09:02:59;3.25;;;0.75;;
38683;SDS011;24910;53.248;-6.134;2023-03-21T09:05:28;2.08;;;0.75;;
38683;SDS011;24910;53.248;-6.134;2023-03-21T09:07:57;2.53;;;0.63;;
38683;SDS011;24910;53.248;-6.134;2023-03-21T09:10:29;1.23;;;0.70;;
38683;SDS011;24910;53.248;-6.134;2023-03-21T09:12:58;1.97;;;0.40;;
38683;SDS011;24910;53.248;-6.134;2023-03-21T09:15:27;3.42;;;0.57;;
38683;SDS011;24910;53.248;-6.134;2023-03-21T09:17:56;1.23;;;0.40;;
38683;SDS011;24910;53.248;-6.134;2023-03-21T09:20:39;3.25;;;0.88;;
38683;SDS011;24910;53.248;-6.134;2023-03-21T09:23:09;2.42;;;0.73;;
38683;SDS011;24910;53.248;-6.134;2023-03-21T09:25:41;2.25;;;0.68;;
38683;SDS011;24910;53.248;-6.134;2023-03-21T09:28:12;7.65;;;1.48;;
38683;SDS011;24910;53.248;-6.134;2023-03-21T09:30:42;5.82;;;0.95;;
38683;SDS011;24910;53.248;-6.134;2023-03-21T09:33:12;5.80;;;1.20;;
38683;SDS011;24910;53.248;-6.134;2023-03-21T09:35:47;2.47;;;0.80;;
38683;SDS011;24910;53.248;-6.134;2023-03-21T09:38:18;4.93;;;1.38;;
38683;SDS011;24910;53.248;-6.134;2023-03-21T09:40:54;7.38;;;1.35;;
38683;SDS011;24910;53.248;-6.134;2023-03-21T09:43:35;6.75;;;0.90;;
38683;SDS011;24910;53.248;-6.134;2023-03-21T09:46:18;7.72;;;1.10;;
38683;SDS011;24910;53.248;-6.134;2023-03-21T09:48:54;3.40;;;0.65;;
38683;SDS011;24910;53.248;-6.134;2023-03-21T09:51:27;4.75;;;0.70;;
38683;SDS011;24910;53.248;-6.134;2023-03-21T09:54:02;5.80;;;0.88;;
38683;SDS011;24910;53.248;-6.134;2023-03-21T09:56:37;3.38;;;0.80;;
38683;SDS011;24910;53.248;-6.134;2023-03-21T09:59:12;4.45;;;0.90;;
38683;SDS011;24910;53.248;-6.134;2023-03-21T10:01:48;6.90;;;0.93;;
38683;SDS011;24910;53.248;-6.134;2023-03-21T10:04:21;9.95;;;1.50;;
38683;SDS011;24910;53.248;-6.134;2023-03-21T10:06:53;5.43;;;0.90;;
38683;SDS011;24910;53.248;-6.134;2023-03-21T10:09:25;3.30;;;0.80;;
38683;SDS011;24910;53.248;-6.134;2023-03-21T10:11:58;4.13;;;0.90;;
38683;SDS011;24910;53.248;-6.134;2023-03-21T10:14:33;6.80;;;1.10;;
38683;SDS011;24910;53.248;-6.134;2023-03-21T10:17:08;6.90;;;1.23;;
38683;SDS011;24910;53.248;-6.134;2023-03-21T10:19:49;3.55;;;0.60;;
38683;SDS011;24910;53.248;-6.134;2023-03-21T10:22:24;6.22;;;0.60;;
38683;SDS011;24910;53.248;-6.134;2023-03-21T10:24:53;1.85;;;0.30;;
38683;SDS011;24910;53.248;-6.134;2023-03-21T10:27:23;1.73;;;0.73;;
38683;SDS011;24910;53.248;-6.134;2023-03-21T10:29:52;3.30;;;0.40;;
38683;SDS011;24910;53.248;-6.134;2023-03-21T10:32:23;1.90;;;0.50;;
38683;SDS011;24910;53.248;-6.134;2023-03-21T10:34:53;2.72;;;0.55;;
38683;SDS011;24910;53.248;-6.134;2023-03-21T10:37:24;4.00;;;0.52;;
38683;SDS011;24910;53.248;-6.134;2023-03-21T10:39:54;0.80;;;0.32;;
38683;SDS011;24910;53.248;-6.134;2023-03-21T10:42:26;0.70;;;0.45;;
38683;SDS011;24910;53.248;-6.134;2023-03-21T10:44:58;1.52;;;0.40;;
38683;SDS011;24910;53.248;-6.134;2023-03-21T10:47:29;0.82;;;0.28;;
38683;SDS011;24910;53.248;-6.134;2023-03-21T10:50:01;3.80;;;0.30;;
38683;SDS011;24910;53.248;-6.134;2023-03-21T10:52:34;0.45;;;0.20;;
38683;SDS011;24910;53.248;-6.134;2023-03-21T10:55:07;2.80;;;0.20;;
38683;SDS011;24910;53.248;-6.134;2023-03-21T10:57:46;0.63;;;0.30;;
38683;SDS011;24910;53.248;-6.134;2023-03-21T11:00:17;1.00;;;0.30;;
38683;SDS011;24910;53.248;-6.134;2023-03-21T11:02:50;0.95;;;0.30;;
38683;SDS011;24910;53.248;-6.134;2023-03-21T11:05:22;2.45;;;0.40;;
38683;SDS011;24910;53.248;-6.134;2023-03-21T11:08:01;0.90;;;0.25;;
38683;SDS011;24910;53.248;-6.134;2023-03-21T11:10:33;0.63;;;0.30;;
38683;SDS011;24910;53.248;-6.134;2023-03-21T11:13:23;0.45;;;0.30;;
38683;SDS011;24910;53.248;-6.134;2023-03-21T11:15:54;2.55;;;0.82;;
38683;SDS011;24910;53.248;-6.134;2023-03-21T11:18:26;3.85;;;0.40;;
38683;SDS011;24910;53.248;-6.134;2023-03-21T11:21:01;0.47;;;0.30;;
38683;SDS011;24910;53.248;-6.134;2023-03-21T11:23:33;1.05;;;0.40;;
38683;SDS011;24910;53.248;-6.134;2023-03-21T11:26:08;2.20;;;0.50;;
38683;SDS011;24910;53.248;-6.134;2023-03-21T11:28:40;1.27;;;0.40;;
38683;SDS011;24910;53.248;-6.134;2023-03-21T11:31:11;1.30;;;0.40;;
38683;SDS011;24910;53.248;-6.134;2023-03-21T11:33:41;2.00;;;0.50;;
38683;SDS011;24910;53.248;-6.134;2023-03-21T11:39:13;2.50;;;0.55;;
38683;SDS011;24910;53.248;-6.134;2023-03-21T11:41:50;3.75;;;0.95;;
38683;SDS011;24910;53.248;-6.134;2023-03-21T11:44:25;2.45;;;0.50;;
38683;SDS011;24910;53.248;-6.134;2023-03-21T11:46:57;4.13;;;0.80;;
38683;SDS011;24910;53.248;-6.134;2023-03-21T11:49:26;4.95;;;0.60;;
38683;SDS011;24910;53.248;-6.134;2023-03-21T11:51:58;3.72;;;0.60;;
38683;SDS011;24910;53.248;-6.134;2023-03-21T11:54:40;4.28;;;0.60;;
38683;SDS011;24910;53.248;-6.134;2023-03-21T11:57:25;3.30;;;0.50;;
38683;SDS011;24910;53.248;-6.134;2023-03-21T12:00:04;3.53;;;0.55;;
38683;SDS011;24910;53.248;-6.134;2023-03-21T12:02:54;4.18;;;0.70;;
38683;SDS011;24910;53.248;-6.134;2023-03-21T12:05:45;3.20;;;0.60;;
38683;SDS011;24910;53.248;-6.134;2023-03-21T12:08:23;1.00;;;0.50;;
38683;SDS011;24910;53.248;-6.134;2023-03-21T12:11:02;5.85;;;0.70;;
38683;SDS011;24910;53.248;-6.134;2023-03-21T12:13:42;2.40;;;0.50;;
38683;SDS011;24910;53.248;-6.134;2023-03-21T12:16:27;4.07;;;0.40;;
38683;SDS011;24910;53.248;-6.134;2023-03-21T12:19:12;1.67;;;0.30;;
38683;SDS011;24910;53.248;-6.134;2023-03-21T12:21:52;2.93;;;0.67;;
38683;SDS011;24910;53.248;-6.134;2023-03-21T12:24:30;2.97;;;0.50;;
38683;SDS011;24910;53.248;-6.134;2023-03-21T12:27:07;3.97;;;0.82;;
38683;SDS011;24910;53.248;-6.134;2023-03-21T12:29:48;3.43;;;0.70;;
38683;SDS011;24910;53.248;-6.134;2023-03-21T12:32:33;4.53;;;0.85;;
38683;SDS011;24910;53.248;-6.134;2023-03-21T12:35:19;5.45;;;0.70;;
38683;SDS011;24910;53.248;-6.134;2023-03-21T12:37:59;3.13;;;0.70;;
38683;SDS011;24910;53.248;-6.134;2023-03-21T12:40:43;6.55;;;0.60;;
38683;SDS011;24910;53.248;-6.134;2023-03-21T12:43:30;4.72;;;0.68;;
38683;SDS011;24910;53.248;-6.134;2023-03-21T12:46:09;2.20;;;0.70;;
38683;SDS011;24910;53.248;-6.134;2023-03-21T12:48:45;2.95;;;0.75;;
38683;SDS011;24910;53.248;-6.134;2023-03-21T12:51:19;3.17;;;0.65;;
38683;SDS011;24910;53.248;-6.134;2023-03-21T12:53:55;5.35;;;0.60;;
38683;SDS011;24910;53.248;-6.134;2023-03-21T12:56:30;4.60;;;0.70;;
38683;SDS011;24910;53.248;-6.134;2023-03-21T12:59:07;4.53;;;0.70;;
38683;SDS011;24910;53.248;-6.134;2023-03-21T13:01:47;4.22;;;0.68;;
38683;SDS011;24910;53.248;-6.134;2023-03-21T13:04:37;4.50;;;0.52;;
38683;SDS011;24910;53.248;-6.134;2023-03-21T13:07:13;2.67;;;0.70;;
38683;SDS011;24910;53.248;-6.134;2023-03-21T13:09:46;3.88;;;0.70;;
38683;SDS011;24910;53.248;-6.134;2023-03-21T13:12:24;2.53;;;0.70;;
38683;SDS011;24910;53.248;-6.134;2023-03-21T13:15:19;2.78;;;0.60;;
38683;SDS011;24910;53.248;-6.134;2023-03-21T13:18:12;2.35;;;0.60;;
38683;SDS011;24910;53.248;-6.134;2023-03-21T13:20:50;4.70;;;1.30;;
38683;SDS011;24910;53.248;-6.134;2023-03-21T13:23:23;6.00;;;0.98;;
38683;SDS011;24910;53.248;-6.134;2023-03-21T13:25:53;4.43;;;0.82;;
38683;SDS011;24910;53.248;-6.134;2023-03-21T13:28:25;4.93;;;1.05;;
38683;SDS011;24910;53.248;-6.134;2023-03-21T13:33:39;7.63;;;1.20;;
38683;SDS011;24910;53.248;-6.134;2023-03-21T13:36:12;5.10;;;1.20;;
38683;SDS011;24910;53.248;-6.134;2023-03-21T13:38:48;9.55;;;1.23;;
38683;SDS011;24910;53.248;-6.134;2023-03-21T13:41:19;5.07;;;0.85;;
38683;SDS011;24910;53.248;-6.134;2023-03-21T13:43:53;10.32;;;1.38;;
38683;SDS011;24910;53.248;-6.134;2023-03-21T13:46:33;7.80;;;1.20;;
38683;SDS011;24910;53.248;-6.134;2023-03-21T13:49:24;8.38;;;1.50;;
38683;SDS011;24910;53.248;-6.134;2023-03-21T13:51:57;9.48;;;1.70;;
38683;SDS011;24910;53.248;-6.134;2023-03-21T14:00:17;11.60;;;1.65;;
38683;SDS011;24910;53.248;-6.134;2023-03-21T14:02:54;11.63;;;1.70;;
38683;SDS011;24910;53.248;-6.134;2023-03-21T14:05:26;10.52;;;1.70;;
38683;SDS011;24910;53.248;-6.134;2023-03-21T14:07:59;9.57;;;1.73;;
38683;SDS011;24910;53.248;-6.134;2023-03-21T14:10:45;9.68;;;1.88;;
38683;SDS011;24910;53.248;-6.134;2023-03-21T14:13:21;9.85;;;2.20;;
38683;SDS011;24910;53.248;-6.134;2023-03-21T14:15:57;12.60;;;1.77;;
38683;SDS011;24910;53.248;-6.134;2023-03-21T14:18:38;15.48;;;1.95;;
38683;SDS011;24910;53.248;-6.134;2023-03-21T14:21:20;11.00;;;1.50;;
38683;SDS011;24910;53.248;-6.134;2023-03-21T14:23:56;9.52;;;1.77;;
38683;SDS011;24910;53.248;-6.134;2023-03-21T14:26:28;10.02;;;1.70;;
38683;SDS011;24910;53.248;-6.134;2023-03-21T14:29:00;9.45;;;1.92;;
38683;SDS011;24910;53.248;-6.134;2023-03-21T14:31:45;8.23;;;1.60;;
38683;SDS011;24910;53.248;-6.134;2023-03-21T14:34:16;7.47;;;1.37;;
38683;SDS011;24910;53.248;-6.134;2023-03-21T14:36:45;9.35;;;1.75;;
38683;SDS011;24910;53.248;-6.134;2023-03-21T14:39:27;7.90;;;1.52;;
38683;SDS011;24910;53.248;-6.134;2023-03-21T14:42:00;8.73;;;1.50;;
38683;SDS011;24910;53.248;-6.134;2023-03-21T14:44:32;7.75;;;1.50;;
38683;SDS011;24910;53.248;-6.134;2023-03-21T14:47:21;7.78;;;1.90;;
38683;SDS011;24910;53.248;-6.134;2023-03-21T14:49:51;10.25;;;1.35;;
38683;SDS011;24910;53.248;-6.134;2023-03-21T14:52:22;7.80;;;1.50;;
38683;SDS011;24910;53.248;-6.134;2023-03-21T14:54:56;7.32;;;1.50;;
38683;SDS011;24910;53.248;-6.134;2023-03-21T14:57:27;11.45;;;2.05;;
38683;SDS011;24910;53.248;-6.134;2023-03-21T14:59:58;10.48;;;2.30;;
38683;SDS011;24910;53.248;-6.134;2023-03-21T15:02:37;8.48;;;1.55;;
38683;SDS011;24910;53.248;-6.134;2023-03-21T15:05:14;14.05;;;2.05;;
38683;SDS011;24910;53.248;-6.134;2023-03-21T15:07:51;9.50;;;2.05;;
38683;SDS011;24910;53.248;-6.134;2023-03-21T15:10:25;12.07;;;2.40;;
38683;SDS011;24910;53.248;-6.134;2023-03-21T15:12:57;12.05;;;2.58;;
38683;SDS011;24910;53.248;-6.134;2023-03-21T15:15:28;12.85;;;2.30;;
38683;SDS011;24910;53.248;-6.134;2023-03-21T15:17:59;9.93;;;2.10;;
38683;SDS011;24910;53.248;-6.134;2023-03-21T15:20:33;9.48;;;2.35;;
38683;SDS011;24910;53.248;-6.134;2023-03-21T15:23:05;9.30;;;1.88;;
38683;SDS011;24910;53.248;-6.134;2023-03-21T15:25:39;10.05;;;2.20;;
38683;SDS011;24910;53.248;-6.134;2023-03-21T15:28:10;10.02;;;2.08;;
38683;SDS011;24910;53.248;-6.134;2023-03-21T15:30:45;8.77;;;2.05;;
38683;SDS011;24910;53.248;-6.134;2023-03-21T15:33:16;12.00;;;2.28;;
38683;SDS011;24910;53.248;-6.134;2023-03-21T15:35:49;9.63;;;1.70;;
38683;SDS011;24910;53.248;-6.134;2023-03-21T15:38:27;10.45;;;1.85;;
38683;SDS011;24910;53.248;-6.134;2023-03-21T15:44:05;8.85;;;1.88;;
38683;SDS011;24910;53.248;-6.134;2023-03-21T15:46:42;9.52;;;2.15;;
38683;SDS011;24910;53.248;-6.134;2023-03-21T15:49:18;11.35;;;1.67;;
38683;SDS011;24910;53.248;-6.134;2023-03-21T15:51:50;6.82;;;1.50;;